Time;durP1;ratioP1;P1;durP2;ratioP2;P2;SDS_P1;SDS_P2;PMS_P1;PMS_P2;Temp;Humidity;BMP_temperature;BMP_pressure;BME280_temperature;BME280_humidity;BME280_pressure;Samples;Min_cycle;Max_cycle;Signal;HPM_P1;HPM_P2
2022/02/06 00:04:59;;;;;;;10.73;5.23;;;;;;;3.79;100.00;100165.47;15281569;19;20968;-50
2022/02/06 00:10:04;;;;;;;10.43;5.23;;;;;;;3.70;100.00;100163.22;15278549;19;20148;-49
2022/02/06 00:15:12;;;;;;;9.03;6.33;;;;;;;3.62;100.00;100149.47;15265688;19;20159;-50
2022/02/06 00:20:17;;;;;;;9.40;5.93;;;;;;;3.57;100.00;100154.03;15259667;19;20151;-49
2022/02/06 00:25:30;;;;;;;11.30;6.57;;;;;;;3.61;100.00;100150.38;15280828;19;20145;-50
2022/02/06 00:30:39;;;;;;;14.40;6.70;;;;;;;3.61;100.00;100153.03;15276088;19;20203;-50
2022/02/06 00:36:04;;;;;;;11.07;6.37;;;;;;;3.58;100.00;100147.84;15273624;19;20169;-50
2022/02/06 00:41:14;;;;;;;10.57;6.13;;;;;;;3.61;100.00;100139.81;15253233;19;20871;-49
2022/02/06 00:46:20;;;;;;;7.70;5.63;;;;;;;3.61;100.00;100129.28;15270810;19;20171;-49
2022/02/06 00:51:32;;;;;;;8.73;5.67;;;;;;;3.62;100.00;100123.09;15274884;19;20141;-50
2022/02/06 00:56:39;;;;;;;9.60;5.83;;;;;;;3.60;100.00;100114.38;15278497;19;20172;-49
2022/02/06 01:01:44;;;;;;;9.40;4.87;;;;;;;3.53;100.00;100107.59;15254170;19;20223;-50
2022/02/06 01:06:49;;;;;;;7.43;5.07;;;;;;;3.44;100.00;100102.69;15266317;19;20147;-50
2022/02/06 01:11:54;;;;;;;7.63;5.30;;;;;;;3.40;100.00;100085.25;15274762;19;20143;-49
2022/02/06 01:17:07;;;;;;;9.27;5.40;;;;;;;3.30;100.00;100097.06;15279039;19;20287;-49
2022/02/06 01:22:21;;;;;;;7.93;5.20;;;;;;;3.35;100.00;100085.44;15264881;19;20143;-49
2022/02/06 01:27:36;;;;;;;8.20;5.47;;;;;;;3.30;100.00;100068.06;15255173;19;20198;-49
2022/02/06 01:32:47;;;;;;;10.07;5.83;;;;;;;3.29;100.00;100056.66;15277293;19;20160;-50
2022/02/06 01:37:58;;;;;;;8.80;5.17;;;;;;;3.34;100.00;100053.84;15275252;19;20144;-50
2022/02/06 01:43:06;;;;;;;11.23;5.73;;;;;;;3.34;100.00;100035.38;15272244;19;21381;-50
2022/02/06 02:04:18;;;;;;;7.83;5.47;;;;;;;3.33;100.00;100009.94;15286226;19;20160;-49
2022/02/06 02:31:23;;;;;;;6.23;4.90;;;;;;;3.49;100.00;99971.47;15255817;19;20179;-51
2022/02/06 02:47:16;;;;;;;8.00;5.00;;;;;;;3.69;100.00;99949.53;15285569;19;20184;-50
2022/02/06 02:52:38;;;;;;;7.93;5.10;;;;;;;3.72;100.00;99926.53;15267783;19;20564;-50
2022/02/06 02:57:48;;;;;;;7.17;5.27;;;;;;;3.78;100.00;99931.53;15262674;19;20141;-50
2022/02/06 03:03:13;;;;;;;7.90;5.10;;;;;;;3.78;100.00;99925.38;15283572;19;20135;-50
2022/02/06 03:08:19;;;;;;;7.23;4.80;;;;;;;3.75;100.00;99918.47;15285983;19;20141;-50
2022/02/06 03:13:28;;;;;;;5.97;4.57;;;;;;;3.71;100.00;99916.91;15282008;19;20148;-51
2022/02/06 03:18:42;;;;;;;8.87;4.57;;;;;;;3.65;100.00;99911.00;15262653;19;20182;-51
2022/02/06 03:23:50;;;;;;;6.20;4.47;;;;;;;3.56;100.00;99912.25;15281646;19;20253;-50
2022/02/06 03:28:56;;;;;;;6.13;4.30;;;;;;;3.46;100.00;99906.53;15281834;19;20171;-51
2022/02/06 03:34:00;;;;;;;6.13;4.10;;;;;;;3.44;100.00;99891.66;15285221;19;20157;-51
2022/02/06 03:39:06;;;;;;;6.70;4.50;;;;;;;3.39;100.00;99880.44;15256860;19;20176;-50
2022/02/06 03:44:21;;;;;;;7.57;4.97;;;;;;;3.45;100.00;99882.84;15261846;19;20153;-50
2022/02/06 03:49:30;;;;;;;7.53;4.57;;;;;;;3.39;100.00;99877.81;15280531;19;20148;-50
2022/02/06 03:54:35;;;;;;;7.70;5.27;;;;;;;3.29;100.00;99860.66;15282862;19;20139;-50
2022/02/06 03:59:39;;;;;;;7.00;5.30;;;;;;;3.28;100.00;99858.94;15272027;19;20250;-50
2022/02/06 04:04:44;;;;;;;8.70;5.70;;;;;;;3.28;100.00;99853.66;15261304;19;20154;-50
2022/02/06 04:09:51;;;;;;;8.47;5.80;;;;;;;3.24;100.00;99840.63;15280374;19;20152;-50
2022/02/06 04:14:58;;;;;;;6.77;5.53;;;;;;;3.21;100.00;99835.50;15281140;19;20152;-51
2022/02/06 04:20:03;;;;;;;6.77;5.73;;;;;;;3.09;100.00;99828.09;15280586;19;20496;-50
2022/02/06 04:25:07;;;;;;;7.87;6.67;;;;;;;3.13;100.00;99818.28;15255559;19;20155;-51
2022/02/06 04:30:12;;;;;;;10.27;6.77;;;;;;;3.10;100.00;99803.44;15268783;19;20247;-51
2022/02/06 04:35:19;;;;;;;9.00;6.77;;;;;;;3.09;100.00;99801.72;15281285;19;20143;-49
2022/02/06 04:40:38;;;;;;;7.63;6.07;;;;;;;3.10;100.00;99790.28;15281024;19;20163;-49
2022/02/06 05:17:52;;;;;;;4.80;4.23;;;;;;;3.24;100.00;99706.19;15278125;19;20175;-50
2022/02/06 05:23:12;;;;;;;5.67;4.03;;;;;;;3.35;100.00;99712.75;15277487;19;20159;-49
2022/02/06 05:28:34;;;;;;;6.07;4.20;;;;;;;3.39;100.00;99709.03;15272253;19;20207;-49
2022/02/06 05:33:39;;;;;;;5.00;4.00;;;;;;;3.34;100.00;99685.53;15253199;19;20174;-51
2022/02/06 05:38:44;;;;;;;6.07;3.70;;;;;;;3.32;100.00;99684.72;15272006;19;20151;-51
2022/02/06 05:43:50;;;;;;;5.20;3.83;;;;;;;3.36;100.00;99675.78;15278010;19;20148;-50
2022/02/06 05:48:54;;;;;;;6.30;3.63;;;;;;;3.40;100.00;99658.84;15274622;19;20157;-49
2022/02/06 05:53:59;;;;;;;5.00;3.50;;;;;;;3.43;100.00;99652.59;15252166;19;20152;-50
2022/02/06 05:59:05;;;;;;;5.07;3.50;;;;;;;3.48;100.00;99654.13;15257563;19;20168;-50
2022/02/06 06:04:09;;;;;;;4.10;3.23;;;;;;;3.54;100.00;99635.34;15274112;19;20172;-51
2022/02/06 06:09:14;;;;;;;5.23;3.10;;;;;;;3.57;100.00;99635.22;15270227;19;20572;-50
2022/02/06 06:14:18;;;;;;;5.70;3.33;;;;;;;3.55;100.00;99626.50;15262067;19;20150;-50
2022/02/06 06:19:23;;;;;;;5.17;3.40;;;;;;;3.63;100.00;99615.59;15241693;19;20193;-50
2022/02/06 06:24:30;;;;;;;6.87;3.70;;;;;;;3.60;100.00;99623.66;15261941;19;20146;-50
2022/02/06 06:29:34;;;;;;;6.10;3.50;;;;;;;3.67;100.00;99619.81;15267949;19;20188;-50
2022/02/06 06:34:39;;;;;;;5.80;3.23;;;;;;;3.72;100.00;99594.06;15276720;19;20223;-50
2022/02/06 06:39:45;;;;;;;3.80;2.87;;;;;;;3.77;100.00;99599.97;15264232;19;20159;-51
2022/02/06 06:44:50;;;;;;;7.00;3.33;;;;;;;3.79;100.00;99595.47;15275157;19;20667;-50
2022/02/06 06:49:56;;;;;;;5.07;3.67;;;;;;;3.79;100.00;99592.84;15284481;19;20225;-50
2022/02/06 06:55:03;;;;;;;5.40;3.70;;;;;;;3.84;100.00;99582.94;15285582;19;20143;-50
2022/02/06 07:00:24;;;;;;;6.07;3.80;;;;;;;3.89;100.00;99578.25;15268626;19;20178;-50
2022/02/06 07:05:29;;;;;;;4.90;2.93;;;;;;;3.93;100.00;99579.84;15265000;19;20178;-50
2022/02/06 07:10:33;;;;;;;6.20;3.73;;;;;;;3.94;100.00;99565.72;15284536;19;20173;-50
2022/02/06 07:15:38;;;;;;;6.57;3.67;;;;;;;3.94;100.00;99559.56;15286173;19;20157;-50
2022/02/06 07:20:43;;;;;;;5.13;3.83;;;;;;;4.08;100.00;99556.25;15281003;19;20152;-49
2022/02/06 07:25:51;;;;;;;6.57;3.83;;;;;;;4.07;100.00;99538.69;15260033;19;20175;-50
2022/02/06 07:30:55;;;;;;;5.70;3.67;;;;;;;4.13;100.00;99539.22;15275918;19;20177;-50
2022/02/06 07:35:59;;;;;;;7.00;4.00;;;;;;;4.13;100.00;99533.09;15284885;19;20180;-50
2022/02/06 07:41:04;;;;;;;4.53;3.73;;;;;;;4.17;100.00;99518.81;15285064;19;20672;-51
2022/02/06 07:46:11;;;;;;;6.17;3.83;;;;;;;4.21;100.00;99513.31;15255956;19;20163;-50
2022/02/06 07:51:16;;;;;;;4.50;3.73;;;;;;;4.27;100.00;99517.41;15261430;19;20160;-50
2022/02/06 07:56:20;;;;;;;4.63;3.57;;;;;;;4.37;100.00;99510.72;15268998;19;20152;-50
2022/02/06 08:01:25;;;;;;;7.93;4.00;;;;;;;4.36;100.00;99493.16;15273913;19;20133;-50
2022/02/06 08:06:29;;;;;;;4.20;3.50;;;;;;;4.58;100.00;99480.56;15259401;19;20172;-54
2022/02/06 08:11:39;;;;;;;7.60;4.00;;;;;;;4.71;100.00;99471.00;15248061;19;20227;-50
2022/02/06 08:16:44;;;;;;;5.27;3.70;;;;;;;4.78;100.00;99460.13;15263872;19;20159;-50
2022/02/06 08:21:48;;;;;;;4.60;3.27;;;;;;;4.90;100.00;99465.59;15273683;19;20157;-50
2022/02/06 08:26:53;;;;;;;4.77;3.40;;;;;;;5.12;100.00;99456.47;15273653;19;20169;-50
2022/02/06 08:31:58;;;;;;;4.93;3.67;;;;;;;5.33;100.00;99442.88;15243509;19;20255;-53
2022/02/06 08:37:04;;;;;;;6.00;3.27;;;;;;;5.39;100.00;99429.31;15259581;19;20880;-50
2022/02/06 08:42:10;;;;;;;5.43;3.43;;;;;;;5.38;100.00;99429.41;15269689;19;20278;-50
2022/02/06 08:47:16;;;;;;;5.90;3.33;;;;;;;5.43;100.00;99435.31;15271045;19;20180;-50
2022/02/06 08:52:21;;;;;;;5.47;3.57;;;;;;;5.49;100.00;99423.50;15255332;19;20475;-49
2022/02/06 08:57:26;;;;;;;4.27;3.53;;;;;;;5.41;100.00;99438.03;15245654;19;20148;-50
2022/02/06 09:02:30;;;;;;;3.50;3.20;;;;;;;5.41;100.00;99427.44;15267149;19;20456;-49
2022/02/06 09:07:35;;;;;;;4.37;3.10;;;;;;;5.44;100.00;99421.97;15265996;19;20242;-52
2022/02/06 09:12:43;;;;;;;4.07;3.57;;;;;;;5.41;100.00;99406.28;15254432;19;21241;-51
2022/02/06 09:17:48;;;;;;;4.47;3.07;;;;;;;5.33;100.00;99395.28;15239281;19;20152;-51
2022/02/06 09:22:53;;;;;;;5.23;3.90;;;;;;;5.33;100.00;99394.41;15253733;19;20164;-51
2022/02/06 09:27:57;;;;;;;4.43;3.63;;;;;;;5.37;100.00;99390.66;15259377;19;20244;-52
2022/02/06 09:38:04;;;;;;;5.37;3.37;;;;;;;5.42;100.00;99370.97;15245622;19;20161;-50
2022/02/06 09:43:08;;;;;;;5.10;3.53;;;;;;;5.52;100.00;99391.56;15251100;19;20741;-53
2022/02/06 09:48:13;;;;;;;5.13;3.33;;;;;;;5.61;100.00;99385.75;15264342;19;20161;-51
2022/02/06 09:53:18;;;;;;;5.10;3.27;;;;;;;5.51;100.00;99374.00;15261580;19;20229;-51
2022/02/06 09:58:45;;;;;;;5.60;3.87;;;;;;;5.32;100.00;99372.41;15257001;19;20273;-51
2022/02/06 10:03:50;;;;;;;6.13;3.93;;;;;;;5.38;100.00;99369.41;15243195;19;20154;-52
2022/02/06 10:08:59;;;;;;;4.23;3.70;;;;;;;5.52;100.00;99359.81;15261141;19;20169;-51
2022/02/06 10:14:03;;;;;;;5.67;3.93;;;;;;;5.47;100.00;99352.16;15266442;19;20164;-51
2022/02/06 10:19:08;;;;;;;4.60;3.40;;;;;;;5.42;100.00;99339.22;15275520;19;20151;-50
2022/02/06 10:24:23;;;;;;;3.80;3.50;;;;;;;5.59;100.00;99318.81;15251812;19;20145;-51
2022/02/06 10:29:39;;;;;;;4.43;3.90;;;;;;;5.62;100.00;99297.47;15264789;19;20224;-51
2022/02/06 10:34:44;;;;;;;4.60;3.73;;;;;;;5.76;100.00;99308.06;15276108;19;20205;-50
2022/02/06 10:40:02;;;;;;;5.07;3.40;;;;;;;5.91;100.00;99298.38;15280955;19;20161;-51
2022/02/06 10:45:16;;;;;;;5.10;4.43;;;;;;;5.90;100.00;99271.06;15263623;19;21388;-50
2022/02/06 10:50:25;;;;;;;4.57;3.80;;;;;;;5.87;100.00;99273.84;15262275;19;20157;-52
2022/02/06 10:55:30;;;;;;;4.47;4.07;;;;;;;5.84;100.00;99273.19;15276492;19;20525;-52
2022/02/06 11:00:37;;;;;;;4.93;3.67;;;;;;;5.86;100.00;99252.78;15279407;19;20153;-51
2022/02/06 11:05:51;;;;;;;4.47;3.80;;;;;;;5.68;100.00;99250.28;15272953;19;20232;-52
2022/02/06 11:11:02;;;;;;;3.50;3.20;;;;;;;5.67;100.00;99248.63;15256119;19;20145;-50
2022/02/06 11:16:21;;;;;;;3.53;3.23;;;;;;;5.61;100.00;99219.88;15275159;19;20161;-50
2022/02/06 11:21:27;;;;;;;3.93;3.53;;;;;;;5.61;100.00;99224.31;15277685;19;20132;-50
2022/02/06 11:26:33;;;;;;;3.77;3.33;;;;;;;5.61;100.00;99211.09;15272054;19;20635;-51
2022/02/06 11:31:38;;;;;;;4.33;3.57;;;;;;;5.65;100.00;99196.72;15245167;19;20467;-52
2022/02/06 11:47:46;;;;;;;4.50;3.20;;;;;;;5.85;100.00;99180.44;15270903;19;20164;-50
2022/02/06 11:52:57;;;;;;;3.97;3.13;;;;;;;5.83;100.00;99177.03;15249231;19;20150;-50
2022/02/06 11:58:38;;;;;;;5.33;3.57;;;;;;;5.72;100.00;99156.53;15251421;19;20528;-52
2022/02/06 12:03:53;;;;;;;5.10;3.50;;;;;;;5.86;100.00;99174.19;15270776;19;20529;-51
2022/02/06 12:09:01;;;;;;;3.43;3.13;;;;;;;5.79;100.00;99157.03;15272427;19;20153;-50
2022/02/06 12:14:18;;;;;;;3.60;3.30;;;;;;;5.83;100.00;99155.00;15243910;19;20927;-50
2022/02/06 12:19:31;;;;;;;3.43;2.93;;;;;;;5.79;100.00;99149.06;15225764;19;20142;-50
2022/02/06 12:24:43;;;;;;;3.93;2.97;;;;;;;6.08;100.00;99129.53;15241203;19;20196;-50
2022/02/06 12:29:53;;;;;;;4.30;3.20;;;;;;;6.30;100.00;99126.34;15239809;19;20583;-50
2022/02/06 12:40:18;;;;;;;3.60;3.30;;;;;;;6.27;100.00;99120.41;15247697;19;20595;-50
2022/02/06 12:45:25;;;;;;;3.97;3.53;;;;;;;6.19;100.00;99101.50;15231734;19;20197;-51
2022/02/06 12:50:40;;;;;;;3.40;3.10;;;;;;;6.03;100.00;99086.66;15269424;19;20640;-50
2022/02/06 12:55:46;;;;;;;4.03;3.40;;;;;;;6.17;100.00;99095.44;15270479;19;20962;-51
2022/02/06 13:00:53;;;;;;;3.47;3.07;;;;;;;6.12;100.00;99088.69;15246307;19;20155;-51
2022/02/06 13:06:06;;;;;;;3.37;3.07;;;;;;;6.29;100.00;99071.66;15257074;19;20160;-50
2022/02/06 13:11:18;;;;;;;3.63;3.30;;;;;;;6.38;100.00;99064.91;15268302;19;20606;-50
2022/02/06 13:16:41;;;;;;;4.67;4.27;;;;;;;6.40;100.00;99052.41;15270573;19;20154;-49
2022/02/06 13:22:16;;;;;;;5.17;4.67;;;;;;;6.31;100.00;99042.41;15247480;19;20156;-49
2022/02/06 13:27:38;;;;;;;4.03;3.63;;;;;;;6.31;100.00;99016.78;15245387;19;20197;-49
2022/02/06 13:32:57;;;;;;;4.43;3.60;;;;;;;6.26;100.00;99034.78;15263844;19;20151;-50
2022/02/06 13:38:09;;;;;;;4.20;3.80;;;;;;;6.28;100.00;99042.66;15266063;19;20147;-50
2022/02/06 13:43:18;;;;;;;3.83;3.33;;;;;;;6.23;100.00;99018.25;15253447;19;20147;-50
2022/02/06 13:48:24;;;;;;;4.30;3.80;;;;;;;6.14;100.00;99012.63;15250627;19;20159;-50
2022/02/06 13:53:33;;;;;;;3.50;3.20;;;;;;;6.09;100.00;98980.28;15270913;19;20158;-50
2022/02/06 13:58:37;;;;;;;3.37;3.07;;;;;;;6.27;100.00;98990.63;15278798;19;20617;-51
2022/02/06 14:03:52;;;;;;;3.80;3.17;;;;;;;6.03;100.00;98964.84;15282800;19;20161;-51
2022/02/06 14:09:08;;;;;;;4.30;3.40;;;;;;;5.99;100.00;98976.56;15256335;19;20149;-50
2022/02/06 14:14:22;;;;;;;4.27;3.50;;;;;;;5.99;100.00;98959.84;15270322;19;20141;-48
2022/02/06 14:19:43;;;;;;;4.67;3.40;;;;;;;5.91;100.00;98965.66;15282362;19;20146;-50
2022/02/06 14:24:56;;;;;;;3.30;3.00;;;;;;;5.86;100.00;98967.72;15282665;19;20153;-50
2022/02/06 14:30:21;;;;;;;3.70;3.30;;;;;;;5.87;100.00;98966.78;15254025;19;20503;-51
2022/02/06 14:35:29;;;;;;;3.87;3.33;;;;;;;5.89;100.00;98956.13;15262999;19;20188;-50
2022/02/06 14:40:46;;;;;;;3.80;3.27;;;;;;;5.86;100.00;98953.63;15279175;19;20247;-52
2022/02/06 14:45:51;;;;;;;3.80;3.33;;;;;;;5.84;100.00;98948.44;15280776;19;20144;-50
2022/02/06 14:50:58;;;;;;;3.67;3.27;;;;;;;5.75;100.00;98943.78;15266385;19;20159;-50
2022/02/06 14:56:03;;;;;;;4.37;3.50;;;;;;;5.76;100.00;98942.81;15250842;19;20137;-50
2022/02/06 15:01:08;;;;;;;3.63;3.33;;;;;;;5.71;100.00;98937.81;15278951;19;20156;-50
2022/02/06 15:06:12;;;;;;;4.50;4.10;;;;;;;5.68;100.00;98918.66;15276717;19;20145;-50
2022/02/06 15:11:17;;;;;;;4.20;3.80;;;;;;;5.62;100.00;98911.97;15274614;19;20152;-52
2022/02/06 15:16:26;;;;;;;3.87;3.40;;;;;;;5.59;100.00;98882.22;15248004;19;20149;-50
2022/02/06 15:21:30;;;;;;;3.67;3.37;;;;;;;5.53;100.00;98864.97;15267199;19;20150;-50
2022/02/06 15:26:35;;;;;;;3.50;3.20;;;;;;;5.59;100.00;98858.41;15275131;19;20191;-50
2022/02/06 15:31:43;;;;;;;3.93;3.57;;;;;;;5.57;100.00;98855.00;15273831;19;20153;-47
2022/02/06 15:36:54;;;;;;;5.03;3.40;;;;;;;5.58;100.00;98857.56;15254767;19;20882;-48
2022/02/06 15:41:58;;;;;;;4.00;3.60;;;;;;;5.60;100.00;98838.94;15256300;19;20666;-48
2022/02/06 15:47:03;;;;;;;4.00;3.57;;;;;;;5.58;100.00;98840.84;15274015;19;20145;-50
2022/02/06 15:52:09;;;;;;;3.90;3.43;;;;;;;5.57;100.00;98825.91;15274149;19;21146;-49
2022/02/06 15:57:14;;;;;;;3.50;3.20;;;;;;;5.57;100.00;98817.97;15268289;19;20719;-49
2022/02/06 16:02:18;;;;;;;4.37;3.23;;;;;;;5.55;100.00;98798.72;15251896;19;20141;-50
2022/02/06 16:07:23;;;;;;;4.50;3.83;;;;;;;5.48;100.00;98784.22;15266520;19;20531;-49
2022/02/06 16:12:28;;;;;;;3.60;3.27;;;;;;;5.51;100.00;98784.00;15271886;19;20164;-50
2022/02/06 16:17:34;;;;;;;4.50;3.00;;;;;;;5.53;100.00;98779.47;15273352;19;20157;-49
2022/02/06 16:22:38;;;;;;;3.87;2.87;;;;;;;5.59;100.00;98774.59;15252303;19;20141;-49
2022/02/06 16:27:43;;;;;;;4.60;3.00;;;;;;;5.64;100.00;98764.53;15257438;19;20164;-50
2022/02/06 16:32:48;;;;;;;3.20;2.90;;;;;;;5.72;100.00;98753.41;15269767;19;20155;-50
2022/02/06 16:37:52;;;;;;;3.10;2.70;;;;;;;5.74;100.00;98748.88;15273790;19;20175;-49
2022/02/06 16:42:57;;;;;;;4.07;3.20;;;;;;;5.76;100.00;98737.22;15264559;19;20177;-48
2022/02/06 16:48:01;;;;;;;3.33;3.03;;;;;;;5.86;100.00;98729.50;15249712;19;20152;-49
2022/02/06 16:53:06;;;;;;;2.90;2.60;;;;;;;5.87;100.00;98725.03;15265998;19;20511;-49
2022/02/06 16:58:10;;;;;;;3.90;3.30;;;;;;;5.83;100.00;98707.69;15266931;19;20159;-49
2022/02/06 17:03:21;;;;;;;3.17;2.67;;;;;;;5.87;100.00;98683.53;15269171;19;20165;-50
2022/02/06 17:08:26;;;;;;;4.80;3.30;;;;;;;5.90;100.00;98678.06;15247786;19;20151;-49
2022/02/06 17:13:32;;;;;;;4.27;3.23;;;;;;;5.89;100.00;98673.72;15261007;19;20172;-49
2022/02/06 17:18:36;;;;;;;5.13;3.97;;;;;;;5.91;100.00;98658.59;15265637;19;20156;-51
2022/02/06 17:23:41;;;;;;;4.70;3.23;;;;;;;5.86;100.00;98655.38;15259046;19;20154;-49
2022/02/06 17:28:45;;;;;;;4.60;3.53;;;;;;;5.89;100.00;98643.75;15246808;19;21207;-50
2022/02/06 17:33:53;;;;;;;3.90;3.20;;;;;;;5.90;100.00;98629.56;15236239;19;20623;-49
2022/02/06 17:38:57;;;;;;;4.80;3.47;;;;;;;5.90;100.00;98619.84;15265589;19;21084;-49
2022/02/06 17:44:04;;;;;;;5.97;3.70;;;;;;;5.89;100.00;98623.44;15265836;19;20181;-49
2022/02/06 17:49:08;;;;;;;4.47;3.57;;;;;;;5.94;100.00;98605.41;15257809;19;20149;-49
2022/02/06 17:54:13;;;;;;;4.13;3.60;;;;;;;5.91;100.00;98588.91;15228734;19;20159;-49
2022/02/06 17:59:18;;;;;;;4.90;3.60;;;;;;;5.84;100.00;98575.22;15221383;19;20738;-50
2022/02/06 18:04:22;;;;;;;3.37;3.07;;;;;;;5.78;100.00;98567.75;15228848;19;20496;-49
2022/02/06 18:09:28;;;;;;;3.60;2.60;;;;;;;5.77;100.00;98560.78;15229634;19;21760;-49
2022/02/06 18:14:33;;;;;;;4.00;3.17;;;;;;;5.82;100.00;98553.31;15216407;19;20174;-50
2022/02/06 18:19:38;;;;;;;3.63;2.87;;;;;;;5.87;100.00;98545.06;15218095;19;20237;-52
2022/02/06 18:24:42;;;;;;;3.00;2.70;;;;;;;5.86;100.00;98523.03;15236661;19;20157;-52
2022/02/06 18:29:47;;;;;;;3.73;2.73;;;;;;;5.90;100.00;98523.69;15253830;19;20161;-51
2022/02/06 18:34:52;;;;;;;4.10;3.40;;;;;;;5.90;100.00;98513.94;15269104;19;20598;-51
2022/02/06 18:39:57;;;;;;;4.93;3.40;;;;;;;5.90;100.00;98503.38;15254608;19;20157;-51
2022/02/06 18:45:03;;;;;;;3.97;3.20;;;;;;;5.93;100.00;98487.22;15272440;19;20172;-50
2022/02/06 18:50:08;;;;;;;4.67;3.33;;;;;;;5.93;100.00;98479.28;15270015;19;20161;-51
2022/02/06 18:55:14;;;;;;;4.00;3.53;;;;;;;5.91;100.00;98451.28;15274421;19;20158;-47
2022/02/06 19:00:18;;;;;;;3.77;3.33;;;;;;;5.98;100.00;98441.91;15247380;19;20153;-51
2022/02/06 19:05:23;;;;;;;6.60;3.30;;;;;;;5.91;100.00;98430.94;15255797;19;20175;-51
2022/02/06 19:10:32;;;;;;;4.90;3.57;;;;;;;5.96;100.00;98431.44;15273969;19;20639;-49
2022/02/06 19:15:36;;;;;;;6.17;3.60;;;;;;;5.99;100.00;98417.97;15267910;19;20147;-48
2022/02/06 19:20:41;;;;;;;5.50;3.57;;;;;;;6.01;100.00;98405.47;15261400;19;20616;-49
2022/02/06 19:25:48;;;;;;;4.37;3.30;;;;;;;6.01;100.00;98394.03;15249844;19;20148;-49
2022/02/06 19:30:53;;;;;;;5.80;4.17;;;;;;;6.01;100.00;98386.94;15276234;19;20142;-49
2022/02/06 19:36:02;;;;;;;6.97;3.63;;;;;;;5.94;100.00;98355.72;15272496;19;20153;-49
2022/02/06 19:41:07;;;;;;;6.47;3.87;;;;;;;5.90;100.00;98352.50;15275214;19;20173;-49
2022/02/06 19:46:13;;;;;;;5.37;3.60;;;;;;;5.77;100.00;98352.56;15245342;19;20157;-49
2022/02/06 19:51:18;;;;;;;5.80;3.90;;;;;;;5.69;100.00;98330.25;15264010;19;20162;-50
2022/02/06 19:56:25;;;;;;;4.53;3.47;;;;;;;5.68;100.00;98323.28;15268107;19;20266;-49
2022/02/06 20:01:29;;;;;;;5.87;4.07;;;;;;;5.61;100.00;98311.50;15267605;19;20615;-49
2022/02/06 20:06:35;;;;;;;5.70;4.20;;;;;;;5.51;100.00;98300.78;15249599;19;20188;-49
2022/02/06 20:11:41;;;;;;;5.70;4.07;;;;;;;5.42;100.00;98285.59;15252879;19;20164;-49
2022/02/06 20:16:47;;;;;;;4.87;3.53;;;;;;;5.39;100.00;98269.97;15267015;19;20149;-49
2022/02/06 20:21:51;;;;;;;8.07;4.43;;;;;;;5.34;100.00;98251.78;15265319;19;20172;-49
2022/02/06 20:26:56;;;;;;;6.67;4.57;;;;;;;5.34;100.00;98251.78;15261306;19;20615;-49
2022/02/06 20:32:02;;;;;;;6.27;4.10;;;;;;;5.27;100.00;98229.44;15240366;19;20160;-49
2022/02/06 20:37:07;;;;;;;7.27;4.37;;;;;;;5.22;100.00;98210.41;15263795;19;21215;-50
2022/02/06 20:42:11;;;;;;;5.67;4.10;;;;;;;5.24;100.00;98192.63;15270109;19;20152;-49
2022/02/06 20:47:17;;;;;;;6.43;3.80;;;;;;;5.25;100.00;98186.41;15269393;19;20149;-49
2022/02/06 20:52:22;;;;;;;6.20;3.83;;;;;;;5.25;100.00;98172.34;15247742;19;20233;-49
2022/02/06 20:57:27;;;;;;;5.37;3.90;;;;;;;5.24;100.00;98163.56;15256849;19;20180;-49
2022/02/06 21:02:32;;;;;;;6.07;4.07;;;;;;;5.23;100.00;98150.44;15274200;19;20220;-49
2022/02/06 21:07:36;;;;;;;4.53;3.60;;;;;;;5.24;100.00;98134.47;15267047;19;20157;-49
2022/02/06 21:12:46;;;;;;;4.20;3.40;;;;;;;5.22;100.00;98109.97;15260653;19;20149;-49
2022/02/06 21:17:51;;;;;;;3.07;2.77;;;;;;;5.25;100.00;98109.72;15251021;19;20159;-49
2022/02/06 21:22:56;;;;;;;3.80;3.07;;;;;;;5.32;100.00;98108.28;15271112;19;20168;-50
2022/02/06 21:28:00;;;;;;;4.83;3.63;;;;;;;5.36;100.00;98091.22;15274305;19;20191;-50
2022/02/06 21:33:05;;;;;;;3.87;3.47;;;;;;;5.36;100.00;98075.34;15275125;19;20161;-50
2022/02/06 21:38:10;;;;;;;4.17;2.77;;;;;;;5.36;100.00;98080.63;15250066;19;20184;-50
2022/02/06 21:43:16;;;;;;;4.50;3.13;;;;;;;5.28;100.00;98056.63;15264413;19;20157;-52
2022/02/06 21:48:20;;;;;;;4.90;3.40;;;;;;;5.26;100.00;98057.69;15276134;19;20173;-51
2022/02/06 21:53:25;;;;;;;4.90;3.33;;;;;;;5.26;100.00;98042.66;15273883;19;20162;-51
2022/02/06 21:58:36;;;;;;;3.80;3.13;;;;;;;5.22;100.00;98046.50;15255389;19;20149;-50
2022/02/06 22:03:41;;;;;;;3.90;3.37;;;;;;;5.25;100.00;98038.34;15260384;19;20526;-48
2022/02/06 22:08:53;;;;;;;3.57;2.70;;;;;;;5.29;100.00;98026.56;15285193;19;20166;-51
2022/02/06 22:24:49;;;;;;;3.87;2.90;;;;;;;5.41;100.00;97983.28;15266605;19;20264;-49
2022/02/06 22:29:54;;;;;;;4.57;3.23;;;;;;;5.48;100.00;97991.56;15283773;19;20193;-48
2022/02/06 22:35:00;;;;;;;3.17;2.70;;;;;;;5.53;100.00;97985.91;15284537;19;20166;-48
2022/02/06 22:40:05;;;;;;;2.60;2.40;;;;;;;5.57;100.00;97979.38;15287818;19;20149;-48
2022/02/06 22:45:10;;;;;;;2.97;2.40;;;;;;;5.57;100.00;97972.28;15261915;19;20140;-48
2022/02/06 22:50:15;;;;;;;3.57;2.70;;;;;;;5.61;100.00;97964.94;15277332;19;20212;-49
2022/02/06 22:55:20;;;;;;;3.40;2.50;;;;;;;5.67;100.00;97967.09;15284247;19;20151;-48
2022/02/06 23:00:49;;;;;;;3.50;2.67;;;;;;;5.65;100.00;97948.72;15287763;19;20144;-48
2022/02/06 23:05:57;;;;;;;3.77;2.80;;;;;;;5.62;100.00;97954.25;15268539;19;20141;-49
2022/02/06 23:11:02;;;;;;;2.97;2.30;;;;;;;5.60;100.00;97956.16;15269831;19;20145;-48
2022/02/06 23:16:07;;;;;;;2.47;2.27;;;;;;;5.58;100.00;97946.66;15264508;19;20177;-50
2022/02/06 23:21:13;;;;;;;2.97;2.43;;;;;;;5.59;100.00;97935.13;15256115;19;20748;-49
2022/02/06 23:26:20;;;;;;;3.17;2.67;;;;;;;5.54;100.00;97924.09;15246224;19;20303;-49
2022/02/06 23:31:25;;;;;;;2.47;2.27;;;;;;;5.52;100.00;97941.91;15231941;19;20704;-51
2022/02/06 23:36:29;;;;;;;2.43;2.10;;;;;;;5.56;100.00;97932.72;15234338;19;20188;-51
2022/02/06 23:41:37;;;;;;;1.73;1.60;;;;;;;5.64;100.00;97932.97;15248324;19;21005;-51
2022/02/06 23:46:43;;;;;;;2.37;1.90;;;;;;;5.68;100.00;97934.38;15246586;19;20200;-49
2022/02/06 23:51:56;;;;;;;2.30;1.90;;;;;;;5.68;100.00;97934.38;15229842;19;20145;-49
2022/02/06 23:57:08;;;;;;;2.70;2.00;;;;;;;5.69;100.00;97933.41;15229418;19;20161;-51
